Time;durP1;ratioP1;P1;durP2;ratioP2;P2;SDS_P1;SDS_P2;PMS_P1;PMS_P2;Temp;Humidity;BMP_temperature;BMP_pressure;BME280_temperature;BME280_humidity;BME280_pressure;Samples;Min_cycle;Max_cycle;Signal;HPM_P1;HPM_P2
2022/08/31 00:04:07;;;;;;;6.28;3.10;;;;;;;18.83;65.97;99961.16;4955838;28;20042;-87
2022/08/31 00:06:33;;;;;;;5.00;3.10;;;;;;;18.83;66.11;99961.16;4967658;28;20039;-88
2022/08/31 00:09:00;;;;;;;5.28;3.53;;;;;;;18.79;65.94;99952.94;4963421;28;20499;-88
2022/08/31 00:11:29;;;;;;;7.68;3.55;;;;;;;18.82;65.72;99968.03;4960184;28;20149;-88
2022/08/31 00:13:58;;;;;;;5.10;2.92;;;;;;;18.79;66.30;99975.44;4941605;28;20046;-88
2022/08/31 00:16:25;;;;;;;8.25;3.25;;;;;;;18.74;66.43;99969.75;4967019;28;20070;-88
2022/08/31 00:18:53;;;;;;;6.68;3.22;;;;;;;18.71;66.31;99965.13;4943945;28;20046;-87
2022/08/31 00:21:21;;;;;;;5.38;3.75;;;;;;;18.60;66.22;99951.72;4933071;28;20525;-88
2022/08/31 00:23:47;;;;;;;5.65;3.38;;;;;;;18.63;66.63;99962.75;4965846;28;20039;-88
2022/08/31 00:26:13;;;;;;;6.18;3.30;;;;;;;18.59;67.47;99950.97;4948916;28;20093;-88
2022/08/31 00:28:39;;;;;;;6.25;3.40;;;;;;;18.59;67.96;99967.81;4974100;28;20089;-88
2022/08/31 00:31:04;;;;;;;5.25;3.58;;;;;;;18.55;68.60;99961.63;4940357;28;20422;-88
2022/08/31 00:33:30;;;;;;;6.93;3.58;;;;;;;18.42;69.00;99952.78;4944358;28;20039;-88
2022/08/31 00:35:57;;;;;;;6.70;3.20;;;;;;;18.40;69.09;99960.91;4959889;28;20437;-87
2022/08/31 00:38:22;;;;;;;9.20;3.40;;;;;;;18.38;69.22;99963.44;4957896;28;20043;-87
2022/08/31 00:40:49;;;;;;;6.75;3.58;;;;;;;18.26;70.15;99958.97;4950165;28;20117;-88
2022/08/31 00:43:35;;;;;;;4.75;3.50;;;;;;;18.31;69.48;99958.25;4942689;28;20042;-88
2022/08/31 00:46:01;;;;;;;5.97;3.33;;;;;;;18.32;69.83;99956.97;4984633;28;20053;-88
2022/08/31 00:48:26;;;;;;;6.22;3.78;;;;;;;18.34;70.08;99968.50;4959614;28;20026;-88
2022/08/31 00:50:52;;;;;;;4.53;3.08;;;;;;;18.28;70.08;99964.09;4968159;28;20053;-87
2022/08/31 00:53:18;;;;;;;8.25;3.60;;;;;;;18.28;70.34;99962.03;4945887;28;20034;-88
2022/08/31 00:55:44;;;;;;;7.18;3.15;;;;;;;18.24;70.69;99969.88;4946799;28;20109;-88
2022/08/31 00:58:10;;;;;;;5.43;3.33;;;;;;;18.21;70.88;99965.28;4932240;28;20049;-88
2022/08/31 01:00:37;;;;;;;4.97;3.67;;;;;;;18.10;71.42;99967.94;4959539;28;20071;-88
2022/08/31 01:03:05;;;;;;;8.20;4.03;;;;;;;18.06;71.72;99970.19;4945566;28;20049;-88
2022/08/31 01:05:31;;;;;;;5.45;3.83;;;;;;;18.03;72.10;99965.56;4961338;28;20046;-88
2022/08/31 01:07:58;;;;;;;6.43;3.88;;;;;;;17.99;72.54;99965.00;4958426;28;20035;-88
2022/08/31 01:10:29;;;;;;;5.85;3.38;;;;;;;17.94;72.46;99965.69;4944500;28;20038;-87
2022/08/31 01:12:57;;;;;;;4.65;3.47;;;;;;;17.99;72.14;99965.00;4956097;28;20074;-88
2022/08/31 01:15:24;;;;;;;6.05;3.50;;;;;;;18.02;72.69;99964.00;4973104;28;20097;-88
2022/08/31 01:17:51;;;;;;;7.43;3.42;;;;;;;17.98;72.70;99957.81;4947661;28;20069;-88
2022/08/31 01:20:45;;;;;;;9.00;3.30;;;;;;;17.95;73.02;99961.63;4939407;28;20047;-88
2022/08/31 01:23:28;;;;;;;7.00;3.90;;;;;;;17.86;73.52;99958.94;4959059;28;20406;-88
2022/08/31 01:25:55;;;;;;;5.05;3.85;;;;;;;17.79;73.87;99948.13;4968927;28;20493;-88
2022/08/31 01:28:21;;;;;;;5.80;3.45;;;;;;;17.74;74.30;99954.41;4962856;28;20034;-87
2022/08/31 01:31:01;;;;;;;9.15;3.67;;;;;;;17.70;74.46;99951.81;4939665;28;20043;-88
2022/08/31 01:33:29;;;;;;;5.97;3.67;;;;;;;17.64;74.91;99946.13;4963639;28;20047;-88
2022/08/31 01:35:56;;;;;;;6.13;3.92;;;;;;;17.60;75.21;99936.38;4966551;28;20046;-88
2022/08/31 01:38:21;;;;;;;5.57;3.58;;;;;;;17.51;76.13;99942.81;4942260;28;20142;-89
2022/08/31 01:41:00;;;;;;;7.18;3.95;;;;;;;17.48;76.11;99955.03;4958828;28;20166;-88
2022/08/31 01:43:26;;;;;;;8.30;3.50;;;;;;;17.43;76.49;99944.50;4945202;28;20386;-88
2022/08/31 01:45:52;;;;;;;9.55;4.07;;;;;;;17.34;77.08;99943.84;4965704;28;20108;-88
2022/08/31 01:48:19;;;;;;;7.10;3.75;;;;;;;17.33;76.59;99948.69;4948187;28;20054;-88
2022/08/31 01:50:45;;;;;;;7.10;3.65;;;;;;;17.28;77.29;99943.75;4963597;28;20046;-88
2022/08/31 01:53:11;;;;;;;5.82;3.85;;;;;;;17.21;77.77;99946.94;4958045;28;20061;-89
2022/08/31 01:55:37;;;;;;;6.88;3.67;;;;;;;17.18;77.74;99945.13;4962488;28;20522;-88
2022/08/31 01:58:04;;;;;;;7.40;3.47;;;;;;;17.13;77.80;99946.56;4943073;28;20056;-87
2022/08/31 02:00:59;;;;;;;6.72;3.53;;;;;;;17.13;77.50;99940.97;4948399;28;20039;-88
2022/08/31 02:03:24;;;;;;;6.45;3.70;;;;;;;17.10;78.39;99946.78;4938322;28;20045;-88
2022/08/31 02:05:50;;;;;;;5.05;3.70;;;;;;;17.10;77.78;99941.16;4940080;28;20035;-88
2022/08/31 02:08:16;;;;;;;5.05;3.45;;;;;;;17.07;78.17;99933.69;4961612;28;20070;-88
2022/08/31 02:10:41;;;;;;;6.40;3.65;;;;;;;17.02;78.57;99926.78;4959508;28;20081;-88
2022/08/31 02:13:08;;;;;;;7.65;3.90;;;;;;;17.02;78.77;99934.41;4937535;28;20039;-88
2022/08/31 02:15:36;;;;;;;5.43;3.95;;;;;;;17.00;78.75;99920.09;4940415;28;20133;-88
2022/08/31 02:18:02;;;;;;;6.72;3.88;;;;;;;16.98;79.12;99929.00;4938323;28;20035;-87
2022/08/31 02:20:28;;;;;;;8.75;3.85;;;;;;;16.97;79.79;99923.88;4956248;28;20051;-86
2022/08/31 02:22:54;;;;;;;7.57;3.90;;;;;;;16.93;80.15;99926.09;4959468;28;20122;-88
2022/08/31 02:25:20;;;;;;;5.25;3.97;;;;;;;16.90;80.81;99915.84;4959709;28;20114;-88
2022/08/31 02:27:45;;;;;;;6.03;3.45;;;;;;;16.90;80.39;99896.25;4954512;28;20126;-87
2022/08/31 02:30:15;;;;;;;8.85;4.00;;;;;;;16.89;80.67;99917.09;4930541;28;20570;-87
2022/08/31 02:32:41;;;;;;;7.78;3.60;;;;;;;16.93;80.07;99909.28;4941612;28;20035;-87
2022/08/31 02:35:08;;;;;;;10.00;3.85;;;;;;;16.93;80.08;99901.66;4943427;28;20585;-86
2022/08/31 02:37:33;;;;;;;6.63;3.70;;;;;;;16.89;81.12;99908.69;4962798;28;20130;-87
2022/08/31 02:40:00;;;;;;;6.47;3.95;;;;;;;16.83;82.03;99905.00;4960790;28;20039;-87
2022/08/31 02:42:25;;;;;;;6.63;4.10;;;;;;;16.79;82.61;99905.22;4942286;28;20050;-88
2022/08/31 02:44:51;;;;;;;9.00;4.38;;;;;;;16.74;83.06;99905.91;4944712;28;20038;-87
2022/08/31 02:47:16;;;;;;;7.32;3.97;;;;;;;16.61;84.11;99906.19;4956937;28;20047;-87
2022/08/31 02:50:07;;;;;;;7.97;3.70;;;;;;;16.66;84.03;99908.28;4950971;28;20498;-87
2022/08/31 02:52:33;;;;;;;10.07;3.72;;;;;;;16.61;84.09;99906.19;4943760;28;20076;-88
2022/08/31 02:55:00;;;;;;;6.70;4.20;;;;;;;16.65;83.86;99906.78;4947485;28;20049;-88
2022/08/31 02:57:27;;;;;;;7.00;4.10;;;;;;;16.63;84.33;99902.88;4944344;28;20049;-88
2022/08/31 02:59:53;;;;;;;6.60;3.90;;;;;;;16.57;84.04;99905.59;4951903;28;20414;-88
2022/08/31 03:02:21;;;;;;;6.15;4.25;;;;;;;16.60;84.18;99915.84;4937281;28;20130;-88
2022/08/31 03:04:46;;;;;;;6.65;3.80;;;;;;;16.62;83.86;99918.91;4946268;28;20046;-87
2022/08/31 03:07:14;;;;;;;9.48;4.45;;;;;;;16.58;84.76;99918.31;4962759;28;20049;-88
2022/08/31 03:09:40;;;;;;;6.97;4.10;;;;;;;16.53;85.34;99921.78;4952781;28;20122;-87
2022/08/31 03:12:07;;;;;;;6.15;4.28;;;;;;;16.51;85.47;99923.50;4969468;28;20039;-88
2022/08/31 03:14:33;;;;;;;7.57;4.55;;;;;;;16.51;85.66;99913.09;4943941;28;20412;-88
2022/08/31 03:16:59;;;;;;;7.50;4.50;;;;;;;16.48;85.55;99924.47;4947624;28;20034;-87
2022/08/31 03:19:24;;;;;;;9.43;4.70;;;;;;;16.47;85.56;99929.28;4937176;28;20114;-88
2022/08/31 03:21:50;;;;;;;6.30;4.10;;;;;;;16.51;86.04;99929.88;4947717;28;20125;-88
2022/08/31 03:24:16;;;;;;;7.05;4.53;;;;;;;16.42;86.97;99943.94;4960799;28;20744;-89
2022/08/31 03:26:43;;;;;;;7.47;5.18;;;;;;;16.44;87.50;99946.28;4952593;28;20460;-89
2022/08/31 03:29:09;;;;;;;7.43;4.40;;;;;;;16.41;87.54;99948.03;4940260;28;20057;-87
2022/08/31 03:31:35;;;;;;;6.35;4.45;;;;;;;16.38;87.83;99943.38;4963371;23;20525;-80
2022/08/31 03:34:01;;;;;;;7.20;4.38;;;;;;;16.41;86.87;99933.25;4968188;28;20054;-80
2022/08/31 03:36:27;;;;;;;6.35;4.22;;;;;;;16.42;87.36;99949.53;4962215;28;20121;-80
2022/08/31 03:38:52;;;;;;;6.20;4.50;;;;;;;16.39;88.00;99944.91;4959925;28;20468;-79
2022/08/31 03:41:21;;;;;;;7.70;4.53;;;;;;;16.37;87.74;99936.25;4949484;28;20078;-81
2022/08/31 03:43:47;;;;;;;6.95;4.50;;;;;;;16.34;88.17;99942.78;4953222;28;20043;-80
2022/08/31 03:46:12;;;;;;;8.85;4.28;;;;;;;16.34;88.30;99956.78;4962754;28;20058;-79
2022/08/31 03:48:41;;;;;;;6.22;4.55;;;;;;;16.29;90.14;99957.44;4946585;28;20050;-89
2022/08/31 03:51:07;;;;;;;9.00;4.70;;;;;;;16.23;91.93;99959.34;4965362;28;20072;-80
2022/08/31 03:53:34;;;;;;;7.78;4.45;;;;;;;16.20;91.24;99954.72;4961989;28;20035;-81
2022/08/31 03:56:02;;;;;;;6.53;4.55;;;;;;;16.08;91.94;99958.53;4966667;28;20043;-81
2022/08/31 03:58:31;;;;;;;7.13;4.22;;;;;;;16.11;90.91;99960.38;4953542;28;20036;-81
2022/08/31 04:01:00;;;;;;;7.22;4.07;;;;;;;16.15;90.53;99958.16;4959029;28;20122;-80
2022/08/31 04:03:46;;;;;;;10.02;5.20;;;;;;;16.18;92.00;99955.19;4946456;29;20493;-81
2022/08/31 04:06:30;;;;;;;7.20;4.63;;;;;;;16.17;91.61;99964.84;4950482;28;20050;-81
2022/08/31 04:09:25;;;;;;;8.55;4.63;;;;;;;16.14;92.28;99962.19;4936591;28;20066;-89
2022/08/31 04:12:14;;;;;;;5.53;4.60;;;;;;;16.08;92.68;99955.72;4938217;29;20131;-89
2022/08/31 04:15:07;;;;;;;7.90;4.95;;;;;;;16.10;92.75;99959.59;4942937;29;20126;-88
2022/08/31 04:17:51;;;;;;;6.82;5.00;;;;;;;16.04;94.03;99955.13;4948158;28;20518;-89
2022/08/31 04:20:42;;;;;;;9.18;5.15;;;;;;;16.01;93.99;99958.91;4960572;28;20409;-90
2022/08/31 04:23:08;;;;;;;7.60;4.63;;;;;;;16.00;95.05;99968.53;4951611;28;20142;-89
2022/08/31 04:25:38;;;;;;;7.40;4.95;;;;;;;16.01;94.11;99968.06;4965083;28;20131;-88
2022/08/31 04:28:04;;;;;;;8.63;4.80;;;;;;;16.07;93.91;99968.94;4939272;29;20035;-80
2022/08/31 04:30:30;;;;;;;10.00;5.88;;;;;;;16.01;95.37;99967.28;4951905;29;20040;-80
2022/08/31 04:32:56;;;;;;;7.15;5.00;;;;;;;15.98;95.48;99966.19;4955645;29;20059;-80
2022/08/31 04:35:22;;;;;;;7.88;5.18;;;;;;;15.90;96.40;99964.22;4955935;28;20077;-80
2022/08/31 04:37:47;;;;;;;8.85;5.10;;;;;;;15.95;95.51;99963.56;4954642;28;20494;-80
2022/08/31 04:40:18;;;;;;;9.65;5.30;;;;;;;16.02;96.38;99966.78;4941359;29;20043;-80
2022/08/31 04:42:47;;;;;;;6.38;5.10;;;;;;;16.08;96.14;99952.94;4942895;28;20051;-80
2022/08/31 04:45:14;;;;;;;7.70;5.05;;;;;;;16.11;96.20;99957.56;4934764;29;20043;-89
2022/08/31 04:47:41;;;;;;;8.93;5.45;;;;;;;16.14;96.23;99956.59;4956958;28;20035;-87
2022/08/31 04:50:09;;;;;;;7.93;5.13;;;;;;;16.22;95.05;99961.38;4952700;29;20094;-88
2022/08/31 04:52:35;;;;;;;8.50;5.38;;;;;;;16.22;94.96;99969.00;4954768;29;20377;-87
2022/08/31 04:55:02;;;;;;;7.85;5.25;;;;;;;16.27;94.79;99963.53;4954852;28;20409;-86
2022/08/31 04:57:27;;;;;;;10.95;5.20;;;;;;;16.37;95.44;99974.66;4944182;29;20035;-87
2022/08/31 04:59:53;;;;;;;8.85;5.38;;;;;;;16.46;94.50;99974.59;4942616;29;20040;-86
2022/08/31 05:02:44;;;;;;;9.00;5.50;;;;;;;16.57;94.70;99972.81;4945983;28;20122;-86
2022/08/31 05:05:13;;;;;;;8.38;4.90;;;;;;;16.70;93.64;99978.91;4959730;28;20134;-80
2022/08/31 05:07:39;;;;;;;10.15;5.20;;;;;;;16.82;93.43;99974.31;4957574;28;20127;-80
2022/08/31 05:10:05;;;;;;;10.38;5.72;;;;;;;17.01;93.13;99972.09;4963603;28;20043;-80
2022/08/31 05:12:31;;;;;;;6.70;4.82;;;;;;;17.20;92.41;99967.81;4959473;28;20067;-80
2022/08/31 05:14:57;;;;;;;6.13;4.88;;;;;;;17.40;90.97;99970.69;4944208;29;20054;-80
2022/08/31 05:17:24;;;;;;;8.02;4.68;;;;;;;17.55;88.93;99977.06;4941348;29;20098;-80
2022/08/31 05:19:51;;;;;;;8.13;5.07;;;;;;;17.67;88.70;99973.19;4939915;29;20276;-80
2022/08/31 05:22:17;;;;;;;8.07;5.20;;;;;;;17.80;87.28;99969.28;4940908;28;20035;-87
2022/08/31 05:24:44;;;;;;;7.03;5.05;;;;;;;18.00;87.21;99955.28;4962854;28;20059;-88
2022/08/31 05:27:11;;;;;;;6.35;4.65;;;;;;;18.28;85.49;99964.84;4962569;28;20043;-88
2022/08/31 05:29:37;;;;;;;8.60;5.25;;;;;;;18.31;84.19;99969.50;4950662;28;20047;-86
2022/08/31 05:32:35;;;;;;;7.43;4.38;;;;;;;18.38;84.68;99973.91;4952384;28;20043;-88
2022/08/31 05:35:01;;;;;;;7.43;4.90;;;;;;;18.46;83.52;99981.41;4967293;28;20445;-88
2022/08/31 05:37:27;;;;;;;7.40;5.53;;;;;;;18.55;82.15;99977.72;4954974;29;20075;-91
2022/08/31 05:39:53;;;;;;;8.57;5.43;;;;;;;18.70;81.64;99977.63;4945796;29;20063;-90
2022/08/31 05:42:19;;;;;;;10.27;5.45;;;;;;;18.89;81.41;99961.97;4961892;28;20095;-81
2022/08/31 05:44:46;;;;;;;6.75;5.03;;;;;;;19.03;80.11;99972.34;4957027;28;20040;-90
2022/08/31 05:47:15;;;;;;;8.40;5.38;;;;;;;19.09;78.96;99965.50;4952967;28;20044;-89
2022/08/31 05:49:44;;;;;;;6.30;4.78;;;;;;;19.20;77.62;99969.69;4947007;28;20035;-89
2022/08/31 05:52:14;;;;;;;6.63;4.75;;;;;;;19.19;77.56;99974.53;4967638;28;20043;-91
2022/08/31 05:54:40;;;;;;;9.00;5.00;;;;;;;19.22;77.78;99975.56;4931603;29;20649;-90
2022/08/31 05:57:05;;;;;;;7.18;4.60;;;;;;;19.25;77.54;99974.59;4952116;29;20130;-89
2022/08/31 05:59:32;;;;;;;7.95;5.10;;;;;;;19.29;76.36;99963.91;4965263;28;20513;-86
2022/08/31 06:02:00;;;;;;;6.72;5.05;;;;;;;19.33;76.22;99970.81;4936835;29;20035;-89
2022/08/31 06:04:27;;;;;;;6.78;5.10;;;;;;;19.43;75.73;99966.59;4959815;28;20067;-80
2022/08/31 06:06:53;;;;;;;7.30;4.95;;;;;;;19.48;76.43;99963.06;4948137;28;20047;-81
2022/08/31 06:09:23;;;;;;;6.57;5.10;;;;;;;19.42;76.67;99973.47;4929785;29;20098;-82
2022/08/31 06:11:50;;;;;;;7.30;4.70;;;;;;;19.58;76.30;99969.25;4941251;29;20031;-82
2022/08/31 06:14:17;;;;;;;7.43;5.13;;;;;;;19.89;73.63;99968.44;4933833;29;20032;-82
2022/08/31 06:16:44;;;;;;;7.03;5.05;;;;;;;20.01;72.30;99964.41;4953688;28;20097;-82
2022/08/31 06:19:11;;;;;;;7.25;4.70;;;;;;;20.23;72.47;99963.75;4951955;28;20086;-82
2022/08/31 06:21:41;;;;;;;5.45;4.53;;;;;;;20.31;71.81;99971.22;4943791;29;20426;-96
2022/08/31 06:24:10;;;;;;;8.57;4.97;;;;;;;20.33;71.59;99962.28;4955843;28;20098;-81
2022/08/31 06:26:37;;;;;;;8.63;5.00;;;;;;;20.32;71.51;99950.25;4934126;29;20095;-81
2022/08/31 06:29:10;;;;;;;7.32;5.00;;;;;;;20.63;71.53;99949.31;4933529;29;20042;-82
2022/08/31 06:31:45;;;;;;;6.53;4.55;;;;;;;20.65;71.32;99946.78;4934282;29;20094;-81
2022/08/31 06:34:14;;;;;;;6.50;4.60;;;;;;;20.64;70.29;99947.28;4941011;28;20508;-80
2022/08/31 06:36:57;;;;;;;7.88;5.00;;;;;;;20.83;70.58;99959.59;4955095;28;20383;-80
2022/08/31 06:39:55;;;;;;;8.73;4.63;;;;;;;21.04;68.86;99958.09;4932585;29;20410;-80
2022/08/31 06:42:37;;;;;;;6.03;4.43;;;;;;;21.17;67.96;99960.47;4960328;28;20505;-95
2022/08/31 06:45:06;;;;;;;8.77;4.85;;;;;;;21.10;69.69;99955.31;4941617;29;20385;-93
2022/08/31 06:47:57;;;;;;;7.60;4.88;;;;;;;21.30;68.88;99952.25;4949173;29;20051;-95
2022/08/31 06:50:25;;;;;;;5.00;4.43;;;;;;;21.28;69.48;99961.22;4936754;29;20052;-95
2022/08/31 06:52:54;;;;;;;7.13;4.38;;;;;;;21.48;69.03;99959.41;4946318;28;20133;-94
2022/08/31 06:55:43;;;;;;;10.27;4.95;;;;;;;21.63;67.29;99957.13;4953274;28;20051;-95
2022/08/31 06:58:27;;;;;;;7.70;4.65;;;;;;;21.67;66.71;99955.56;4940006;29;20122;-95
2022/08/31 07:00:57;;;;;;;7.55;5.05;;;;;;;21.89;65.80;99957.56;4943133;28;20043;-81
2022/08/31 07:03:49;;;;;;;6.32;4.60;;;;;;;22.25;65.08;99959.28;4939398;29;20233;-81
2022/08/31 07:06:17;;;;;;;6.93;4.40;;;;;;;22.52;62.75;99965.34;4941442;29;20245;-80
2022/08/31 07:08:47;;;;;;;6.63;4.30;;;;;;;22.79;61.80;99964.44;4935470;29;20048;-80
2022/08/31 07:11:22;;;;;;;7.68;4.32;;;;;;;22.92;61.04;99967.47;4933005;29;20098;-80
2022/08/31 07:13:48;;;;;;;6.70;4.35;;;;;;;23.01;60.69;99963.56;4947825;28;20043;-80
2022/08/31 07:16:17;;;;;;;7.13;5.28;;;;;;;22.96;61.67;99959.47;4960098;28;20574;-80
2022/08/31 07:18:43;;;;;;;8.57;4.78;;;;;;;23.29;61.04;99960.50;4975565;29;20042;-80
2022/08/31 07:21:14;;;;;;;8.05;4.70;;;;;;;23.07;61.13;99955.78;4951966;28;20047;-81
2022/08/31 07:23:41;;;;;;;6.72;4.78;;;;;;;23.25;60.56;99955.88;4948593;28;20179;-81
2022/08/31 07:26:17;;;;;;;7.10;4.72;;;;;;;23.51;59.68;99955.44;4939855;29;20044;-80
2022/08/31 07:28:43;;;;;;;8.30;4.18;;;;;;;23.58;59.79;99951.25;4939439;29;20065;-81
2022/08/31 07:31:11;;;;;;;8.10;5.07;;;;;;;23.76;59.26;99953.41;4955567;28;20484;-81
2022/08/31 07:33:37;;;;;;;7.05;4.57;;;;;;;23.77;59.01;99959.84;4946677;28;20428;-81
2022/08/31 07:36:06;;;;;;;6.55;5.18;;;;;;;23.85;58.40;99953.06;4939872;28;20107;-94
2022/08/31 07:44:13;;;;;;;6.00;4.55;;;;;;;24.32;56.61;99949.97;4959883;28;20071;-96
2022/08/31 07:46:40;;;;;;;6.20;4.45;;;;;;;24.34;57.47;99944.53;4967960;28;20482;-95
2022/08/31 07:49:12;;;;;;;7.30;4.60;;;;;;;24.54;57.32;99950.47;4968019;28;20043;-96
2022/08/31 07:51:58;;;;;;;6.88;4.35;;;;;;;24.73;57.43;99958.94;4951856;28;20078;-95
2022/08/31 07:54:43;;;;;;;6.93;4.70;;;;;;;24.86;57.06;99947.72;4946696;29;20058;-95
2022/08/31 07:57:41;;;;;;;;;;;;;;;24.88;56.94;99964.19;4962417;28;20098;-94
2022/08/31 08:00:07;;;;;;;6.38;4.65;;;;;;;25.00;55.33;99954.97;4960778;28;19922;-95
2022/08/31 08:02:40;;;;;;;8.48;4.68;;;;;;;25.07;56.24;99948.66;4946425;29;20043;-96
2022/08/31 08:05:08;;;;;;;6.63;4.93;;;;;;;25.13;55.70;99945.75;4953972;28;20106;-96
2022/08/31 08:07:57;;;;;;;6.85;4.50;;;;;;;25.15;54.24;99943.13;4945505;28;20544;-96
2022/08/31 08:10:52;;;;;;;7.20;4.63;;;;;;;25.72;53.90;99943.75;4942362;29;20039;-95
2022/08/31 08:13:37;;;;;;;6.13;4.47;;;;;;;25.93;53.50;99945.38;4952203;29;20042;-95
2022/08/31 08:16:32;;;;;;;7.45;4.53;;;;;;;26.33;51.52;99957.53;4935187;29;20045;-95
2022/08/31 08:19:16;;;;;;;7.95;4.75;;;;;;;26.31;51.26;99956.56;4931273;29;20043;-95
2022/08/31 08:21:44;;;;;;;8.13;4.60;;;;;;;26.27;52.01;99947.59;4968549;28;20067;-94
2022/08/31 08:24:12;;;;;;;7.82;4.88;;;;;;;26.10;52.13;99944.28;4963268;28;20047;-95
2022/08/31 08:27:14;;;;;;;8.02;4.60;;;;;;;26.33;51.95;99943.31;4925345;28;20071;-94
2022/08/31 08:30:00;;;;;;;7.30;4.85;;;;;;;26.15;52.39;99935.66;4948898;29;21662;-96
2022/08/31 08:32:30;;;;;;;9.82;4.78;;;;;;;25.86;52.98;99928.22;4973726;28;20039;-96
2022/08/31 08:34:56;;;;;;;6.80;4.78;;;;;;;26.39;52.94;99932.59;4947631;29;20056;-96
2022/08/31 08:37:22;;;;;;;7.22;4.57;;;;;;;26.44;52.14;99928.09;4963254;28;20067;-81
2022/08/31 08:39:48;;;;;;;9.13;4.68;;;;;;;26.51;51.73;99929.50;4945109;28;20067;-81
2022/08/31 08:42:21;;;;;;;6.10;4.60;;;;;;;26.54;51.29;99928.41;4950314;28;20095;-82
2022/08/31 08:44:47;;;;;;;6.85;4.65;;;;;;;26.69;51.71;99935.03;4932330;29;20569;-82
2022/08/31 08:47:21;;;;;;;5.20;4.70;;;;;;;26.45;51.48;99938.16;4928399;29;20127;-81
2022/08/31 08:49:53;;;;;;;7.03;4.82;;;;;;;26.43;51.16;99932.25;4950668;29;20039;-82
2022/08/31 08:52:27;;;;;;;6.82;4.82;;;;;;;26.90;50.13;99930.16;4946111;29;20043;-84
2022/08/31 08:54:55;;;;;;;7.80;4.80;;;;;;;27.17;49.63;99927.22;4944790;28;20523;-81
2022/08/31 08:57:30;;;;;;;8.40;4.68;;;;;;;27.45;50.18;99926.50;4936655;29;20344;-81
2022/08/31 09:00:01;;;;;;;6.32;4.75;;;;;;;27.60;49.03;99921.72;4928159;29;20784;-82
2022/08/31 09:02:38;;;;;;;6.03;4.70;;;;;;;27.64;47.73;99933.53;4952660;28;20071;-81
2022/08/31 09:05:23;;;;;;;7.32;4.85;;;;;;;27.60;47.09;99924.56;4944699;29;20040;-81
2022/08/31 09:07:57;;;;;;;7.63;4.80;;;;;;;27.56;47.56;99924.16;4945366;29;20130;-81
2022/08/31 09:10:33;;;;;;;9.63;4.70;;;;;;;27.66;49.17;99925.19;4960400;28;20047;-81
2022/08/31 09:13:24;;;;;;;5.53;4.60;;;;;;;27.86;47.27;99931.41;4929454;29;20122;-81
2022/08/31 09:16:39;;;;;;;9.02;4.93;;;;;;;27.80;46.33;99923.78;4959339;28;20047;-94
2022/08/31 09:19:10;;;;;;;9.88;5.10;;;;;;;27.32;47.93;99927.34;4909149;29;20147;-94
2022/08/31 09:21:44;;;;;;;7.90;4.68;;;;;;;27.75;47.90;99921.06;4948382;28;20044;-94
2022/08/31 09:24:13;;;;;;;7.20;4.65;;;;;;;27.41;48.17;99918.31;4945572;28;20043;-95
2022/08/31 09:27:18;;;;;;;8.20;5.00;;;;;;;27.09;48.88;99907.22;4947518;29;20523;-96
2022/08/31 09:30:04;;;;;;;6.80;4.45;;;;;;;26.47;50.30;99915.63;4934841;29;20035;-95
2022/08/31 09:32:33;;;;;;;9.00;4.90;;;;;;;26.27;51.51;99902.09;4946084;29;20050;-95
2022/08/31 09:35:08;;;;;;;5.25;3.97;;;;;;;26.96;50.02;99912.22;4949038;29;20110;-92
2022/08/31 09:37:44;;;;;;;5.93;4.20;;;;;;;27.55;47.72;99908.38;4938824;29;20121;-96
2022/08/31 09:40:22;;;;;;;7.10;4.38;;;;;;;27.99;45.38;99905.63;4938478;29;20048;-96
2022/08/31 09:43:21;;;;;;;7.18;5.03;;;;;;;27.95;44.97;99893.81;4938092;29;20035;-94
2022/08/31 09:45:49;;;;;;;7.50;4.55;;;;;;;28.17;45.03;99888.28;4936870;29;20039;-96
2022/08/31 09:48:42;;;;;;;4.85;4.13;;;;;;;28.20;43.72;99881.44;4942509;29;20039;-94
2022/08/31 09:51:08;;;;;;;;;;;;;;;28.40;43.87;99881.91;4948128;28;20073;-81
2022/08/31 09:56:25;;;;;;;7.03;4.55;;;;;;;28.70;42.29;99882.78;4957547;29;20038;-94
2022/08/31 09:58:54;;;;;;;4.85;4.35;;;;;;;28.76;43.59;99876.88;4970857;29;20054;-96
2022/08/31 10:01:28;;;;;;;6.25;4.57;;;;;;;29.02;42.84;99884.38;4986708;28;20043;-94
2022/08/31 10:04:14;;;;;;;12.68;4.53;;;;;;;29.09;42.31;99884.38;5003832;23;20272;-84
2022/08/31 10:06:45;;;;;;;6.43;4.68;;;;;;;28.89;42.97;99875.97;4980993;28;20089;-85
2022/08/31 10:09:34;;;;;;;6.55;4.28;;;;;;;29.24;42.02;99877.16;4965042;28;20521;-85
2022/08/31 10:12:05;;;;;;;6.45;4.47;;;;;;;29.62;41.06;99864.38;4956564;28;20467;-86
2022/08/31 10:14:54;;;;;;;5.50;3.70;;;;;;;29.27;41.07;99871.06;4964623;28;20051;-85
2022/08/31 10:17:27;;;;;;;6.15;4.10;;;;;;;29.00;42.86;99875.59;4954313;28;20082;-85
2022/08/31 10:20:04;;;;;;;6.20;4.60;;;;;;;28.43;43.12;99869.38;4969516;28;20042;-84
2022/08/31 10:22:45;;;;;;;6.55;4.45;;;;;;;28.25;43.13;99865.50;4963044;28;20082;-85
2022/08/31 10:25:23;;;;;;;7.15;4.28;;;;;;;28.30;43.72;99861.72;4972810;28;20070;-85
2022/08/31 10:27:58;;;;;;;8.75;4.68;;;;;;;28.46;43.46;99857.59;5007649;23;20054;-84
2022/08/31 10:30:27;;;;;;;5.28;4.50;;;;;;;28.69;43.92;99858.44;4972552;28;20366;-84
2022/08/31 10:32:58;;;;;;;6.38;4.38;;;;;;;28.59;44.39;99860.28;4969306;28;20042;-84
2022/08/31 10:35:41;;;;;;;7.03;4.57;;;;;;;28.44;43.84;99854.53;4970584;28;20116;-85
2022/08/31 10:38:25;;;;;;;7.60;4.45;;;;;;;28.52;43.71;99848.84;4991859;28;20603;-86
2022/08/31 10:41:10;;;;;;;6.93;4.22;;;;;;;28.84;44.60;99828.38;4970011;28;20049;-83
2022/08/31 10:44:01;;;;;;;6.82;3.97;;;;;;;28.50;42.72;99846.56;4985210;28;20042;-86
2022/08/31 10:46:29;;;;;;;7.78;4.05;;;;;;;29.14;42.31;99845.53;4971179;28;20761;-85
2022/08/31 10:48:59;;;;;;;8.63;4.65;;;;;;;29.22;41.89;99834.88;4987253;28;20058;-83
2022/08/31 10:52:01;;;;;;;6.03;4.28;;;;;;;29.37;41.29;99829.16;4989224;28;20069;-83
2022/08/31 10:54:32;;;;;;;5.70;4.25;;;;;;;29.50;40.78;99843.25;4982039;28;20065;-83
2022/08/31 10:57:35;;;;;;;5.38;4.28;;;;;;;29.65;40.43;99831.78;4989209;28;20061;-85
2022/08/31 11:03:20;;;;;;;5.25;3.97;;;;;;;29.13;41.01;99835.44;4977989;28;20545;-83
2022/08/31 11:06:31;;;;;;;5.80;4.10;;;;;;;29.37;40.31;99816.97;4972593;28;20494;-83
2022/08/31 11:09:03;;;;;;;6.90;3.75;;;;;;;29.65;40.79;99817.50;4985138;28;20046;-83
2022/08/31 11:11:44;;;;;;;5.15;3.75;;;;;;;29.75;38.42;99816.91;4971687;28;20093;-83
2022/08/31 11:14:22;;;;;;;6.43;4.07;;;;;;;29.91;39.10;99810.59;4954167;28;20161;-83
2022/08/31 11:16:48;;;;;;;4.95;4.13;;;;;;;30.12;38.30;99821.75;4994116;28;20042;-83
2022/08/31 11:19:39;;;;;;;6.43;3.63;;;;;;;30.13;37.48;99814.66;4987292;28;20053;-84
2022/08/31 11:22:15;;;;;;;8.90;4.25;;;;;;;30.15;38.55;99814.88;4970909;28;20529;-83
2022/08/31 11:24:55;;;;;;;5.93;3.63;;;;;;;30.48;38.68;99807.84;4988630;28;20055;-83
2022/08/31 11:27:40;;;;;;;6.32;4.00;;;;;;;30.55;39.05;99809.91;4970966;28;20034;-83
2022/08/31 11:30:27;;;;;;;6.05;3.83;;;;;;;30.40;37.58;99807.13;4953209;28;20058;-83
2022/08/31 11:32:59;;;;;;;7.05;3.70;;;;;;;30.36;38.05;99806.00;4956073;28;20047;-83
2022/08/31 11:35:46;;;;;;;8.52;4.15;;;;;;;30.49;37.73;99803.63;4963648;28;20054;-83
2022/08/31 11:38:56;;;;;;;7.78;3.95;;;;;;;30.40;37.65;99804.25;4986551;28;20054;-83
2022/08/31 11:41:46;;;;;;;6.15;3.92;;;;;;;30.31;36.83;99804.09;4987947;28;20137;-83
2022/08/31 11:44:28;;;;;;;5.22;3.88;;;;;;;30.17;37.90;99800.72;4983237;28;20121;-83
2022/08/31 11:47:11;;;;;;;8.40;4.20;;;;;;;30.44;36.82;99793.19;4990345;28;20093;-83
2022/08/31 11:49:53;;;;;;;5.88;3.90;;;;;;;30.22;37.40;99805.47;4977105;28;20101;-83
2022/08/31 11:52:52;;;;;;;6.65;3.88;;;;;;;30.55;36.41;99801.31;4960046;28;20315;-83
2022/08/31 11:55:24;;;;;;;7.10;3.90;;;;;;;30.54;36.71;99799.78;4960474;28;20039;-83
2022/08/31 11:58:06;;;;;;;6.22;3.80;;;;;;;30.25;35.48;99806.44;4993820;28;20038;-83
2022/08/31 12:00:50;;;;;;;4.93;4.15;;;;;;;30.42;36.36;99797.94;4987360;28;20461;-83
2022/08/31 12:03:50;;;;;;;5.97;3.85;;;;;;;30.47;36.82;99806.31;4994040;28;20050;-82
2022/08/31 12:06:26;;;;;;;5.40;3.70;;;;;;;30.87;36.47;99794.03;4975509;28;20133;-84
2022/08/31 12:09:16;;;;;;;6.88;3.83;;;;;;;31.19;35.94;99799.69;4993819;28;20050;-84
2022/08/31 12:12:06;;;;;;;6.10;3.90;;;;;;;30.97;34.53;99801.41;4988655;28;20092;-84
2022/08/31 12:14:37;;;;;;;5.00;4.10;;;;;;;31.27;34.99;99794.66;4985760;28;20042;-84
2022/08/31 12:17:19;;;;;;;4.68;3.50;;;;;;;31.18;35.33;99803.16;4993166;28;20049;-84